sensor_id;sensor_type;location;lat;lon;timestamp;temperature;humidity
64833;HTU21D;51290;45.060;38.948;2023-06-04T00:01:05;20.88;70.90
64833;HTU21D;51290;45.060;38.948;2023-06-04T00:03:31;20.88;70.97
64833;HTU21D;51290;45.060;38.948;2023-06-04T00:05:57;20.93;71.00
64833;HTU21D;51290;45.060;38.948;2023-06-04T00:08:23;20.98;70.93
64833;HTU21D;51290;45.060;38.948;2023-06-04T00:10:49;20.99;70.84
64833;HTU21D;51290;45.060;38.948;2023-06-04T00:13:15;21.00;70.81
64833;HTU21D;51290;45.060;38.948;2023-06-04T00:15:41;21.01;70.77
64833;HTU21D;51290;45.060;38.948;2023-06-04T00:18:07;21.01;70.91
64833;HTU21D;51290;45.060;38.948;2023-06-04T00:20:33;21.01;71.07
64833;HTU21D;51290;45.060;38.948;2023-06-04T00:22:59;21.01;71.10
64833;HTU21D;51290;45.060;38.948;2023-06-04T00:25:25;21.01;71.10
64833;HTU21D;51290;45.060;38.948;2023-06-04T00:27:51;21.01;71.05
64833;HTU21D;51290;45.060;38.948;2023-06-04T00:30:17;20.99;71.00
64833;HTU21D;51290;45.060;38.948;2023-06-04T00:32:43;20.98;71.25
64833;HTU21D;51290;45.060;38.948;2023-06-04T00:35:12;20.95;71.09
64833;HTU21D;51290;45.060;38.948;2023-06-04T00:37:38;20.94;71.07
64833;HTU21D;51290;45.060;38.948;2023-06-04T00:40:05;20.92;71.23
64833;HTU21D;51290;45.060;38.948;2023-06-04T00:42:32;20.92;71.67
64833;HTU21D;51290;45.060;38.948;2023-06-04T00:44:58;20.94;71.43
64833;HTU21D;51290;45.060;38.948;2023-06-04T00:47:32;20.95;71.60
64833;HTU21D;51290;45.060;38.948;2023-06-04T00:49:58;20.96;71.42
64833;HTU21D;51290;45.060;38.948;2023-06-04T00:52:24;20.99;71.33
64833;HTU21D;51290;45.060;38.948;2023-06-04T00:54:52;20.99;71.29
64833;HTU21D;51290;45.060;38.948;2023-06-04T00:57:21;20.99;71.51
64833;HTU21D;51290;45.060;38.948;2023-06-04T00:59:48;20.98;71.37
64833;HTU21D;51290;45.060;38.948;2023-06-04T01:02:18;20.99;71.42
64833;HTU21D;51290;45.060;38.948;2023-06-04T01:07:41;20.98;71.19
64833;HTU21D;51290;45.060;38.948;2023-06-04T01:10:13;20.96;71.16
64833;HTU21D;51290;45.060;38.948;2023-06-04T01:12:43;20.98;71.22
64833;HTU21D;51290;45.060;38.948;2023-06-04T01:15:10;20.96;71.30
64833;HTU21D;51290;45.060;38.948;2023-06-04T01:25:39;20.83;71.29
64833;HTU21D;51290;45.060;38.948;2023-06-04T01:28:10;20.79;71.45
64833;HTU21D;51290;45.060;38.948;2023-06-04T01:30:41;20.77;71.48
64833;HTU21D;51290;45.060;38.948;2023-06-04T01:33:13;20.73;71.45
64833;HTU21D;51290;45.060;38.948;2023-06-04T01:35:43;20.70;71.40
64833;HTU21D;51290;45.060;38.948;2023-06-04T01:38:09;20.70;71.63
64833;HTU21D;51290;45.060;38.948;2023-06-04T01:40:36;20.71;71.61
64833;HTU21D;51290;45.060;38.948;2023-06-04T01:43:02;20.72;71.57
64833;HTU21D;51290;45.060;38.948;2023-06-04T01:45:29;20.75;71.47
64833;HTU21D;51290;45.060;38.948;2023-06-04T01:47:56;20.79;71.42
64833;HTU21D;51290;45.060;38.948;2023-06-04T01:50:23;20.83;71.33
64833;HTU21D;51290;45.060;38.948;2023-06-04T01:52:49;20.87;71.26
64833;HTU21D;51290;45.060;38.948;2023-06-04T01:55:16;20.92;71.28
64833;HTU21D;51290;45.060;38.948;2023-06-04T01:57:43;20.99;71.23
64833;HTU21D;51290;45.060;38.948;2023-06-04T02:00:11;21.04;71.12
64833;HTU21D;51290;45.060;38.948;2023-06-04T02:02:42;21.10;70.99
64833;HTU21D;51290;45.060;38.948;2023-06-04T02:05:10;21.15;70.80
64833;HTU21D;51290;45.060;38.948;2023-06-04T02:07:37;21.18;70.69
64833;HTU21D;51290;45.060;38.948;2023-06-04T02:10:08;21.21;70.58
64833;HTU21D;51290;45.060;38.948;2023-06-04T02:12:39;21.24;70.50
64833;HTU21D;51290;45.060;38.948;2023-06-04T02:15:07;21.25;70.43
64833;HTU21D;51290;45.060;38.948;2023-06-04T02:17:33;21.28;70.39
64833;HTU21D;51290;45.060;38.948;2023-06-04T02:20:03;21.33;70.29
64833;HTU21D;51290;45.060;38.948;2023-06-04T02:22:30;21.36;70.18
64833;HTU21D;51290;45.060;38.948;2023-06-04T02:24:59;21.38;70.10
64833;HTU21D;51290;45.060;38.948;2023-06-04T02:27:25;21.40;70.07
64833;HTU21D;51290;45.060;38.948;2023-06-04T02:29:52;21.43;70.01
64833;HTU21D;51290;45.060;38.948;2023-06-04T02:32:18;21.46;69.91
64833;HTU21D;51290;45.060;38.948;2023-06-04T02:34:46;21.46;69.82
64833;HTU21D;51290;45.060;38.948;2023-06-04T02:37:12;21.45;69.76
64833;HTU21D;51290;45.060;38.948;2023-06-04T02:39:38;21.45;69.78
64833;HTU21D;51290;45.060;38.948;2023-06-04T02:42:04;21.43;69.79
64833;HTU21D;51290;45.060;38.948;2023-06-04T02:44:31;21.45;69.80
64833;HTU21D;51290;45.060;38.948;2023-06-04T02:46:58;21.44;69.78
64833;HTU21D;51290;45.060;38.948;2023-06-04T02:49:24;21.42;69.78
64833;HTU21D;51290;45.060;38.948;2023-06-04T02:51:50;21.38;69.79
64833;HTU21D;51290;45.060;38.948;2023-06-04T02:54:16;21.38;69.78
64833;HTU21D;51290;45.060;38.948;2023-06-04T02:56:42;21.39;69.74
64833;HTU21D;51290;45.060;38.948;2023-06-04T02:59:11;21.36;69.68
64833;HTU21D;51290;45.060;38.948;2023-06-04T03:01:37;21.36;69.61
64833;HTU21D;51290;45.060;38.948;2023-06-04T03:04:03;21.34;69.59
64833;HTU21D;51290;45.060;38.948;2023-06-04T03:06:31;21.29;69.57
64833;HTU21D;51290;45.060;38.948;2023-06-04T03:08:58;21.25;69.58
64833;HTU21D;51290;45.060;38.948;2023-06-04T03:11:26;21.19;69.66
64833;HTU21D;51290;45.060;38.948;2023-06-04T03:13:52;21.13;69.64
64833;HTU21D;51290;45.060;38.948;2023-06-04T03:16:20;21.08;69.72
64833;HTU21D;51290;45.060;38.948;2023-06-04T03:18:46;20.91;70.11
64833;HTU21D;51290;45.060;38.948;2023-06-04T03:21:13;20.39;70.72
64833;HTU21D;51290;45.060;38.948;2023-06-04T03:23:39;19.67;75.02
64833;HTU21D;51290;45.060;38.948;2023-06-04T03:26:06;18.97;78.43
64833;HTU21D;51290;45.060;38.948;2023-06-04T03:28:33;18.51;81.78
64833;HTU21D;51290;45.060;38.948;2023-06-04T03:31:03;18.30;84.13
64833;HTU21D;51290;45.060;38.948;2023-06-04T03:33:29;18.18;86.29
64833;HTU21D;51290;45.060;38.948;2023-06-04T03:35:55;18.08;87.39
64833;HTU21D;51290;45.060;38.948;2023-06-04T03:38:25;18.00;88.17
64833;HTU21D;51290;45.060;38.948;2023-06-04T03:40:51;17.97;88.80
64833;HTU21D;51290;45.060;38.948;2023-06-04T03:43:21;17.93;89.19
64833;HTU21D;51290;45.060;38.948;2023-06-04T03:45:50;17.91;89.60
64833;HTU21D;51290;45.060;38.948;2023-06-04T03:48:17;17.89;89.92
64833;HTU21D;51290;45.060;38.948;2023-06-04T03:50:44;17.87;90.13
64833;HTU21D;51290;45.060;38.948;2023-06-04T03:53:12;17.83;90.28
64833;HTU21D;51290;45.060;38.948;2023-06-04T03:55:40;17.77;90.46
64833;HTU21D;51290;45.060;38.948;2023-06-04T03:58:07;17.74;90.70
64833;HTU21D;51290;45.060;38.948;2023-06-04T04:00:37;17.69;91.40
64833;HTU21D;51290;45.060;38.948;2023-06-04T04:03:03;17.66;91.89
64833;HTU21D;51290;45.060;38.948;2023-06-04T04:05:31;17.65;92.23
64833;HTU21D;51290;45.060;38.948;2023-06-04T04:08:03;17.63;92.46
64833;HTU21D;51290;45.060;38.948;2023-06-04T04:10:32;17.62;92.74
64833;HTU21D;51290;45.060;38.948;2023-06-04T04:12:58;17.62;92.89
64833;HTU21D;51290;45.060;38.948;2023-06-04T04:15:25;17.59;93.10
64833;HTU21D;51290;45.060;38.948;2023-06-04T04:17:55;17.56;93.24
64833;HTU21D;51290;45.060;38.948;2023-06-04T04:20:21;17.58;93.43
64833;HTU21D;51290;45.060;38.948;2023-06-04T04:22:52;17.58;93.52
64833;HTU21D;51290;45.060;38.948;2023-06-04T04:25:22;17.59;93.65
64833;HTU21D;51290;45.060;38.948;2023-06-04T04:27:50;17.55;93.67
64833;HTU21D;51290;45.060;38.948;2023-06-04T04:30:15;17.53;93.71
64833;HTU21D;51290;45.060;38.948;2023-06-04T04:32:45;17.51;93.77
64833;HTU21D;51290;45.060;38.948;2023-06-04T04:35:17;17.45;93.88
64833;HTU21D;51290;45.060;38.948;2023-06-04T04:37:45;17.44;94.07
64833;HTU21D;51290;45.060;38.948;2023-06-04T04:40:13;17.41;94.14
64833;HTU21D;51290;45.060;38.948;2023-06-04T04:42:43;17.40;94.20
64833;HTU21D;51290;45.060;38.948;2023-06-04T04:45:11;17.36;94.19
64833;HTU21D;51290;45.060;38.948;2023-06-04T04:47:39;17.34;94.23
64833;HTU21D;51290;45.060;38.948;2023-06-04T04:50:05;17.29;94.32
64833;HTU21D;51290;45.060;38.948;2023-06-04T04:52:32;17.25;94.34
64833;HTU21D;51290;45.060;38.948;2023-06-04T04:54:58;17.22;94.41
64833;HTU21D;51290;45.060;38.948;2023-06-04T04:57:28;17.20;94.47
64833;HTU21D;51290;45.060;38.948;2023-06-04T04:59:56;17.18;94.53
64833;HTU21D;51290;45.060;38.948;2023-06-04T05:02:22;17.16;94.62
64833;HTU21D;51290;45.060;38.948;2023-06-04T05:04:49;17.14;94.69
64833;HTU21D;51290;45.060;38.948;2023-06-04T05:07:16;17.14;94.75
64833;HTU21D;51290;45.060;38.948;2023-06-04T05:09:42;17.11;94.81
64833;HTU21D;51290;45.060;38.948;2023-06-04T05:12:10;17.10;94.84
64833;HTU21D;51290;45.060;38.948;2023-06-04T05:14:37;17.09;94.91
64833;HTU21D;51290;45.060;38.948;2023-06-04T05:17:04;17.06;94.96
64833;HTU21D;51290;45.060;38.948;2023-06-04T05:19:33;17.05;94.98
64833;HTU21D;51290;45.060;38.948;2023-06-04T05:22:00;17.03;95.04
64833;HTU21D;51290;45.060;38.948;2023-06-04T05:24:27;17.00;95.11
64833;HTU21D;51290;45.060;38.948;2023-06-04T05:26:57;17.02;95.20
64833;HTU21D;51290;45.060;38.948;2023-06-04T05:29:24;17.03;95.28
64833;HTU21D;51290;45.060;38.948;2023-06-04T05:31:51;17.04;95.33
64833;HTU21D;51290;45.060;38.948;2023-06-04T05:34:19;17.03;95.40
64833;HTU21D;51290;45.060;38.948;2023-06-04T05:36:48;17.04;95.45
64833;HTU21D;51290;45.060;38.948;2023-06-04T05:39:16;17.03;95.52
64833;HTU21D;51290;45.060;38.948;2023-06-04T05:41:51;17.01;95.52
64833;HTU21D;51290;45.060;38.948;2023-06-04T05:44:18;16.99;95.55
64833;HTU21D;51290;45.060;38.948;2023-06-04T05:46:44;16.98;95.66
64833;HTU21D;51290;45.060;38.948;2023-06-04T05:49:11;16.95;95.68
64833;HTU21D;51290;45.060;38.948;2023-06-04T05:51:38;16.92;95.72
64833;HTU21D;51290;45.060;38.948;2023-06-04T05:54:04;16.90;95.75
64833;HTU21D;51290;45.060;38.948;2023-06-04T05:56:34;16.89;95.77
64833;HTU21D;51290;45.060;38.948;2023-06-04T05:59:00;16.86;95.78
64833;HTU21D;51290;45.060;38.948;2023-06-04T06:01:27;16.84;95.83
64833;HTU21D;51290;45.060;38.948;2023-06-04T06:03:55;16.82;95.90
64833;HTU21D;51290;45.060;38.948;2023-06-04T06:06:24;16.81;95.95
64833;HTU21D;51290;45.060;38.948;2023-06-04T06:08:50;16.81;95.99
64833;HTU21D;51290;45.060;38.948;2023-06-04T06:11:19;16.81;96.07
64833;HTU21D;51290;45.060;38.948;2023-06-04T06:13:45;16.80;96.08
64833;HTU21D;51290;45.060;38.948;2023-06-04T06:16:12;16.81;96.14
64833;HTU21D;51290;45.060;38.948;2023-06-04T06:18:38;16.80;96.20
64833;HTU21D;51290;45.060;38.948;2023-06-04T06:21:04;16.81;96.24
64833;HTU21D;51290;45.060;38.948;2023-06-04T06:23:31;16.82;96.26
64833;HTU21D;51290;45.060;38.948;2023-06-04T06:25:57;16.87;96.27
64833;HTU21D;51290;45.060;38.948;2023-06-04T06:28:28;16.89;96.23
64833;HTU21D;51290;45.060;38.948;2023-06-04T06:30:56;16.89;96.24
64833;HTU21D;51290;45.060;38.948;2023-06-04T06:33:22;16.89;96.24
64833;HTU21D;51290;45.060;38.948;2023-06-04T06:35:49;16.90;96.25
64833;HTU21D;51290;45.060;38.948;2023-06-04T06:38:15;16.89;96.27
64833;HTU21D;51290;45.060;38.948;2023-06-04T06:40:41;16.90;96.29
64833;HTU21D;51290;45.060;38.948;2023-06-04T06:43:07;16.90;96.29
64833;HTU21D;51290;45.060;38.948;2023-06-04T06:45:33;16.88;96.33
64833;HTU21D;51290;45.060;38.948;2023-06-04T06:47:59;16.88;96.38
64833;HTU21D;51290;45.060;38.948;2023-06-04T06:50:25;16.89;96.41
64833;HTU21D;51290;45.060;38.948;2023-06-04T06:52:52;16.88;96.45
64833;HTU21D;51290;45.060;38.948;2023-06-04T06:55:17;16.89;96.46
64833;HTU21D;51290;45.060;38.948;2023-06-04T06:57:44;16.90;96.52
64833;HTU21D;51290;45.060;38.948;2023-06-04T07:00:11;16.92;96.51
64833;HTU21D;51290;45.060;38.948;2023-06-04T07:02:37;16.92;96.53
64833;HTU21D;51290;45.060;38.948;2023-06-04T07:05:03;16.94;96.56
64833;HTU21D;51290;45.060;38.948;2023-06-04T07:07:29;16.95;96.57
64833;HTU21D;51290;45.060;38.948;2023-06-04T07:09:55;16.96;96.61
64833;HTU21D;51290;45.060;38.948;2023-06-04T07:12:23;16.96;96.61
64833;HTU21D;51290;45.060;38.948;2023-06-04T07:14:49;16.98;96.64
64833;HTU21D;51290;45.060;38.948;2023-06-04T07:17:15;17.01;96.71
64833;HTU21D;51290;45.060;38.948;2023-06-04T07:19:41;17.05;96.71
64833;HTU21D;51290;45.060;38.948;2023-06-04T07:22:07;17.10;96.75
64833;HTU21D;51290;45.060;38.948;2023-06-04T07:24:33;17.14;96.75
64833;HTU21D;51290;45.060;38.948;2023-06-04T07:27:00;17.18;96.75
64833;HTU21D;51290;45.060;38.948;2023-06-04T07:29:26;17.20;96.73
64833;HTU21D;51290;45.060;38.948;2023-06-04T07:31:52;17.24;96.72
64833;HTU21D;51290;45.060;38.948;2023-06-04T07:34:18;17.28;96.80
64833;HTU21D;51290;45.060;38.948;2023-06-04T07:36:44;17.35;96.87
64833;HTU21D;51290;45.060;38.948;2023-06-04T07:39:10;17.46;96.85
64833;HTU21D;51290;45.060;38.948;2023-06-04T07:41:36;17.54;96.79
64833;HTU21D;51290;45.060;38.948;2023-06-04T07:44:02;17.60;96.74
64833;HTU21D;51290;45.060;38.948;2023-06-04T07:46:28;17.65;96.68
64833;HTU21D;51290;45.060;38.948;2023-06-04T07:48:54;17.70;96.68
64833;HTU21D;51290;45.060;38.948;2023-06-04T07:51:38;17.76;96.62
64833;HTU21D;51290;45.060;38.948;2023-06-04T07:54:07;17.81;96.65
64833;HTU21D;51290;45.060;38.948;2023-06-04T07:56:33;17.89;96.68
64833;HTU21D;51290;45.060;38.948;2023-06-04T07:58:59;17.98;96.65
64833;HTU21D;51290;45.060;38.948;2023-06-04T08:01:25;18.06;96.55
64833;HTU21D;51290;45.060;38.948;2023-06-04T08:03:51;18.17;96.49
64833;HTU21D;51290;45.060;38.948;2023-06-04T08:06:17;18.26;96.39
64833;HTU21D;51290;45.060;38.948;2023-06-04T08:08:44;18.33;96.36
64833;HTU21D;51290;45.060;38.948;2023-06-04T08:11:20;18.37;96.20
64833;HTU21D;51290;45.060;38.948;2023-06-04T08:13:48;18.41;96.18
64833;HTU21D;51290;45.060;38.948;2023-06-04T08:16:15;18.48;96.32
64833;HTU21D;51290;45.060;38.948;2023-06-04T08:18:41;18.54;96.26
64833;HTU21D;51290;45.060;38.948;2023-06-04T08:21:10;18.62;96.33
64833;HTU21D;51290;45.060;38.948;2023-06-04T08:23:42;18.68;96.20
64833;HTU21D;51290;45.060;38.948;2023-06-04T08:26:11;18.71;96.05
64833;HTU21D;51290;45.060;38.948;2023-06-04T08:28:37;18.69;95.94
64833;HTU21D;51290;45.060;38.948;2023-06-04T08:31:04;18.67;95.94
64833;HTU21D;51290;45.060;38.948;2023-06-04T08:33:30;18.71;96.17
64833;HTU21D;51290;45.060;38.948;2023-06-04T08:35:56;18.71;96.10
64833;HTU21D;51290;45.060;38.948;2023-06-04T08:38:22;18.70;95.99
64833;HTU21D;51290;45.060;38.948;2023-06-04T08:40:52;18.73;96.19
64833;HTU21D;51290;45.060;38.948;2023-06-04T08:43:19;18.79;96.18
64833;HTU21D;51290;45.060;38.948;2023-06-04T08:45:49;18.84;96.29
64833;HTU21D;51290;45.060;38.948;2023-06-04T08:48:18;18.84;96.02
64833;HTU21D;51290;45.060;38.948;2023-06-04T08:50:48;18.78;95.91
64833;HTU21D;51290;45.060;38.948;2023-06-04T08:53:23;18.70;95.62
64833;HTU21D;51290;45.060;38.948;2023-06-04T08:55:50;18.58;95.66
64833;HTU21D;51290;45.060;38.948;2023-06-04T08:58:19;18.51;95.75
64833;HTU21D;51290;45.060;38.948;2023-06-04T09:00:45;18.44;95.88
64833;HTU21D;51290;45.060;38.948;2023-06-04T09:03:15;18.42;95.95
64833;HTU21D;51290;45.060;38.948;2023-06-04T09:05:44;18.36;96.01
64833;HTU21D;51290;45.060;38.948;2023-06-04T09:08:17;18.35;96.23
64833;HTU21D;51290;45.060;38.948;2023-06-04T09:10:45;18.33;96.17
64833;HTU21D;51290;45.060;38.948;2023-06-04T09:13:13;18.26;96.24
64833;HTU21D;51290;45.060;38.948;2023-06-04T09:15:40;18.19;96.29
64833;HTU21D;51290;45.060;38.948;2023-06-04T09:18:06;18.12;96.36
64833;HTU21D;51290;45.060;38.948;2023-06-04T09:20:32;18.05;96.40
64833;HTU21D;51290;45.060;38.948;2023-06-04T09:23:02;17.97;96.48
64833;HTU21D;51290;45.060;38.948;2023-06-04T09:25:42;17.93;96.66
64833;HTU21D;51290;45.060;38.948;2023-06-04T09:28:09;17.90;96.75
64833;HTU21D;51290;45.060;38.948;2023-06-04T09:30:51;17.88;96.84
64833;HTU21D;51290;45.060;38.948;2023-06-04T09:33:17;17.87;96.91
64833;HTU21D;51290;45.060;38.948;2023-06-04T09:35:56;17.87;96.95
64833;HTU21D;51290;45.060;38.948;2023-06-04T09:38:22;17.87;97.00
64833;HTU21D;51290;45.060;38.948;2023-06-04T09:40:48;17.83;96.99
64833;HTU21D;51290;45.060;38.948;2023-06-04T09:43:24;17.82;97.05
64833;HTU21D;51290;45.060;38.948;2023-06-04T09:45:50;17.80;97.06
64833;HTU21D;51290;45.060;38.948;2023-06-04T09:48:20;17.80;97.09
64833;HTU21D;51290;45.060;38.948;2023-06-04T09:50:49;17.80;97.15
64833;HTU21D;51290;45.060;38.948;2023-06-04T09:53:18;17.80;97.13
64833;HTU21D;51290;45.060;38.948;2023-06-04T09:56:01;17.79;97.20
64833;HTU21D;51290;45.060;38.948;2023-06-04T09:58:41;17.78;97.19
64833;HTU21D;51290;45.060;38.948;2023-06-04T10:01:08;17.78;97.22
64833;HTU21D;51290;45.060;38.948;2023-06-04T10:03:36;17.81;97.29
64833;HTU21D;51290;45.060;38.948;2023-06-04T10:06:05;17.85;97.36
64833;HTU21D;51290;45.060;38.948;2023-06-04T10:08:32;17.89;97.35
64833;HTU21D;51290;45.060;38.948;2023-06-04T10:11:01;17.91;97.30
64833;HTU21D;51290;45.060;38.948;2023-06-04T10:16:12;17.93;97.36
64833;HTU21D;51290;45.060;38.948;2023-06-04T10:18:41;17.96;97.42
64833;HTU21D;51290;45.060;38.948;2023-06-04T10:21:32;18.02;97.45
64833;HTU21D;51290;45.060;38.948;2023-06-04T10:24:00;18.03;97.52
64833;HTU21D;51290;45.060;38.948;2023-06-04T10:26:26;18.11;97.61
64833;HTU21D;51290;45.060;38.948;2023-06-04T10:28:53;18.17;97.57
64833;HTU21D;51290;45.060;38.948;2023-06-04T10:31:19;18.19;97.49
64833;HTU21D;51290;45.060;38.948;2023-06-04T10:33:45;18.22;97.53
64833;HTU21D;51290;45.060;38.948;2023-06-04T10:36:19;18.32;97.60
64833;HTU21D;51290;45.060;38.948;2023-06-04T10:38:53;18.47;97.73
64833;HTU21D;51290;45.060;38.948;2023-06-04T10:41:27;18.63;97.71
64833;HTU21D;51290;45.060;38.948;2023-06-04T10:44:01;18.84;97.70
64833;HTU21D;51290;45.060;38.948;2023-06-04T10:46:37;19.05;97.58
64833;HTU21D;51290;45.060;38.948;2023-06-04T10:49:04;19.22;97.43
64833;HTU21D;51290;45.060;38.948;2023-06-04T10:51:32;19.31;97.15
64833;HTU21D;51290;45.060;38.948;2023-06-04T10:54:00;19.40;97.04
64833;HTU21D;51290;45.060;38.948;2023-06-04T10:56:46;19.52;96.95
64833;HTU21D;51290;45.060;38.948;2023-06-04T10:59:13;19.56;96.75
64833;HTU21D;51290;45.060;38.948;2023-06-04T11:01:40;19.61;96.71
64833;HTU21D;51290;45.060;38.948;2023-06-04T11:04:06;19.68;96.68
64833;HTU21D;51290;45.060;38.948;2023-06-04T11:06:33;19.72;96.63
64833;HTU21D;51290;45.060;38.948;2023-06-04T11:09:05;19.85;96.79
64833;HTU21D;51290;45.060;38.948;2023-06-04T11:11:32;19.90;96.49
64833;HTU21D;51290;45.060;38.948;2023-06-04T11:14:08;19.96;96.62
64833;HTU21D;51290;45.060;38.948;2023-06-04T11:16:35;20.04;96.58
64833;HTU21D;51290;45.060;38.948;2023-06-04T11:19:01;20.12;96.43
64833;HTU21D;51290;45.060;38.948;2023-06-04T11:21:28;20.14;96.32
64833;HTU21D;51290;45.060;38.948;2023-06-04T11:24:00;20.20;96.37
64833;HTU21D;51290;45.060;38.948;2023-06-04T11:26:34;20.24;96.33
64833;HTU21D;51290;45.060;38.948;2023-06-04T11:29:01;20.22;96.06
64833;HTU21D;51290;45.060;38.948;2023-06-04T11:31:27;20.26;96.20
64833;HTU21D;51290;45.060;38.948;2023-06-04T11:33:53;20.32;96.26
64833;HTU21D;51290;45.060;38.948;2023-06-04T11:36:27;20.31;96.04
64833;HTU21D;51290;45.060;38.948;2023-06-04T11:38:58;20.29;96.04
64833;HTU21D;51290;45.060;38.948;2023-06-04T11:41:28;20.33;96.15
64833;HTU21D;51290;45.060;38.948;2023-06-04T11:43:55;20.41;96.24
64833;HTU21D;51290;45.060;38.948;2023-06-04T11:46:22;20.48;96.13
64833;HTU21D;51290;45.060;38.948;2023-06-04T11:48:51;20.59;96.07
64833;HTU21D;51290;45.060;38.948;2023-06-04T11:51:20;20.73;96.04
64833;HTU21D;51290;45.060;38.948;2023-06-04T11:53:47;20.81;95.86
64833;HTU21D;51290;45.060;38.948;2023-06-04T11:56:13;20.93;95.87
64833;HTU21D;51290;45.060;38.948;2023-06-04T11:58:39;21.10;95.90
64833;HTU21D;51290;45.060;38.948;2023-06-04T12:01:09;21.19;95.53
64833;HTU21D;51290;45.060;38.948;2023-06-04T12:03:36;21.24;95.53
64833;HTU21D;51290;45.060;38.948;2023-06-04T12:06:14;21.38;95.84
64833;HTU21D;51290;45.060;38.948;2023-06-04T12:08:53;21.51;95.65
64833;HTU21D;51290;45.060;38.948;2023-06-04T12:11:33;21.48;95.34
64833;HTU21D;51290;45.060;38.948;2023-06-04T12:14:07;21.44;95.01
64833;HTU21D;51290;45.060;38.948;2023-06-04T12:16:38;21.42;95.08
64833;HTU21D;51290;45.060;38.948;2023-06-04T12:19:09;21.48;95.46
64833;HTU21D;51290;45.060;38.948;2023-06-04T12:21:36;21.57;95.37
64833;HTU21D;51290;45.060;38.948;2023-06-04T12:24:06;21.63;95.26
64833;HTU21D;51290;45.060;38.948;2023-06-04T12:26:34;21.68;95.19
64833;HTU21D;51290;45.060;38.948;2023-06-04T12:29:10;21.73;95.33
64833;HTU21D;51290;45.060;38.948;2023-06-04T12:31:38;21.84;95.23
64833;HTU21D;51290;45.060;38.948;2023-06-04T12:34:04;21.95;95.20
64833;HTU21D;51290;45.060;38.948;2023-06-04T12:36:31;22.10;95.15
64833;HTU21D;51290;45.060;38.948;2023-06-04T12:39:00;22.18;95.10
64833;HTU21D;51290;45.060;38.948;2023-06-04T12:41:27;22.32;95.06
64833;HTU21D;51290;45.060;38.948;2023-06-04T12:43:54;22.40;95.05
64833;HTU21D;51290;45.060;38.948;2023-06-04T12:46:21;22.41;95.04
64833;HTU21D;51290;45.060;38.948;2023-06-04T12:48:48;22.40;94.80
64833;HTU21D;51290;45.060;38.948;2023-06-04T12:51:14;22.37;95.07
64833;HTU21D;51290;45.060;38.948;2023-06-04T12:53:43;22.36;95.15
64833;HTU21D;51290;45.060;38.948;2023-06-04T12:56:10;22.35;95.28
64833;HTU21D;51290;45.060;38.948;2023-06-04T12:58:37;22.35;95.46
64833;HTU21D;51290;45.060;38.948;2023-06-04T13:01:03;22.40;95.55
64833;HTU21D;51290;45.060;38.948;2023-06-04T13:03:32;22.42;95.50
64833;HTU21D;51290;45.060;38.948;2023-06-04T13:05:59;22.48;95.52
64833;HTU21D;51290;45.060;38.948;2023-06-04T13:08:25;22.51;95.52
64833;HTU21D;51290;45.060;38.948;2023-06-04T13:10:52;22.55;95.50
64833;HTU21D;51290;45.060;38.948;2023-06-04T13:13:19;22.56;95.49
64833;HTU21D;51290;45.060;38.948;2023-06-04T13:15:46;22.52;95.41
64833;HTU21D;51290;45.060;38.948;2023-06-04T13:18:13;22.46;95.42
64833;HTU21D;51290;45.060;38.948;2023-06-04T13:20:42;22.40;95.61
64833;HTU21D;51290;45.060;38.948;2023-06-04T13:23:08;22.43;95.75
64833;HTU21D;51290;45.060;38.948;2023-06-04T13:25:34;22.44;95.78
64833;HTU21D;51290;45.060;38.948;2023-06-04T13:28:02;22.47;95.79
64833;HTU21D;51290;45.060;38.948;2023-06-04T13:30:28;22.52;95.85
64833;HTU21D;51290;45.060;38.948;2023-06-04T13:32:54;22.49;95.49
64833;HTU21D;51290;45.060;38.948;2023-06-04T13:35:21;22.44;95.61
64833;HTU21D;51290;45.060;38.948;2023-06-04T13:37:47;22.41;95.63
64833;HTU21D;51290;45.060;38.948;2023-06-04T13:40:14;22.44;95.91
64833;HTU21D;51290;45.060;38.948;2023-06-04T13:42:41;22.50;95.97
64833;HTU21D;51290;45.060;38.948;2023-06-04T13:45:09;22.52;95.97
64833;HTU21D;51290;45.060;38.948;2023-06-04T13:47:48;22.52;95.82
64833;HTU21D;51290;45.060;38.948;2023-06-04T13:50:15;22.50;95.75
64833;HTU21D;51290;45.060;38.948;2023-06-04T13:52:44;22.44;95.65
64833;HTU21D;51290;45.060;38.948;2023-06-04T13:55:12;22.37;95.72
64833;HTU21D;51290;45.060;38.948;2023-06-04T13:57:38;22.34;95.85
64833;HTU21D;51290;45.060;38.948;2023-06-04T14:00:07;22.31;95.81
64833;HTU21D;51290;45.060;38.948;2023-06-04T14:02:49;22.33;96.01
64833;HTU21D;51290;45.060;38.948;2023-06-04T14:05:17;22.37;96.00
64833;HTU21D;51290;45.060;38.948;2023-06-04T14:07:43;22.49;96.15
64833;HTU21D;51290;45.060;38.948;2023-06-04T14:10:29;22.63;96.09
64833;HTU21D;51290;45.060;38.948;2023-06-04T14:12:55;22.73;96.11
64833;HTU21D;51290;45.060;38.948;2023-06-04T14:15:22;22.87;95.91
64833;HTU21D;51290;45.060;38.948;2023-06-04T14:17:48;22.92;95.65
64833;HTU21D;51290;45.060;38.948;2023-06-04T14:20:14;22.94;95.64
64833;HTU21D;51290;45.060;38.948;2023-06-04T14:22:40;22.92;95.58
64833;HTU21D;51290;45.060;38.948;2023-06-04T14:25:07;22.82;95.36
64833;HTU21D;51290;45.060;38.948;2023-06-04T14:27:34;22.80;95.56
64833;HTU21D;51290;45.060;38.948;2023-06-04T14:30:02;22.82;95.68
64833;HTU21D;51290;45.060;38.948;2023-06-04T14:32:28;22.88;95.84
64833;HTU21D;51290;45.060;38.948;2023-06-04T14:34:57;22.94;95.78
64833;HTU21D;51290;45.060;38.948;2023-06-04T14:37:23;22.97;95.75
64833;HTU21D;51290;45.060;38.948;2023-06-04T14:39:49;23.01;95.66
64833;HTU21D;51290;45.060;38.948;2023-06-04T14:42:34;23.03;95.48
64833;HTU21D;51290;45.060;38.948;2023-06-04T14:45:00;23.01;95.33
64833;HTU21D;51290;45.060;38.948;2023-06-04T14:47:29;22.97;95.18
64833;HTU21D;51290;45.060;38.948;2023-06-04T14:49:55;22.90;95.12
64833;HTU21D;51290;45.060;38.948;2023-06-04T14:52:21;22.82;95.24
64833;HTU21D;51290;45.060;38.948;2023-06-04T14:54:47;22.71;95.36
64833;HTU21D;51290;45.060;38.948;2023-06-04T14:57:12;22.65;95.43
64833;HTU21D;51290;45.060;38.948;2023-06-04T14:59:40;22.58;95.51
64833;HTU21D;51290;45.060;38.948;2023-06-04T15:02:08;22.52;95.57
64833;HTU21D;51290;45.060;38.948;2023-06-04T15:04:34;22.49;95.59
64833;HTU21D;51290;45.060;38.948;2023-06-04T15:07:03;22.41;95.62
64833;HTU21D;51290;45.060;38.948;2023-06-04T15:09:29;22.37;95.66
64833;HTU21D;51290;45.060;38.948;2023-06-04T15:11:56;22.35;95.62
64833;HTU21D;51290;45.060;38.948;2023-06-04T15:14:22;22.29;95.64
64833;HTU21D;51290;45.060;38.948;2023-06-04T15:16:48;22.24;95.59
64833;HTU21D;51290;45.060;38.948;2023-06-04T15:19:14;22.21;95.71
64833;HTU21D;51290;45.060;38.948;2023-06-04T15:21:40;22.19;95.85